Thomson Dream — 9HA2381 — position and weather

sailwx.info

Track history (hours):
 
Tides and Currents Weather Stations Pressure Air Temp Water Temp Dewpoint Dewpoint Depression Visibility Wind Speed Wind Dir Waves Ship Positions

Thomson Dream

Last reported at 2018-Feb-22 08:29 UTC. Time now 2018-Feb-22 08:54 UTC.
Position N 28°58' W 013°32'.

Length 243 m; draft 7.6 m.

Type: Ship. MMSI: 248480975.

Date/timePositionNaut miles runAvg speedWind from/ knotsBaromVisibWave heightAir tempDewpointWater temp
2018-Feb-22 08:29N 28°58' W 013°32'1 2.4
2018-Feb-22 08:00N 28°57' W 013°31'714.4
2018-Feb-22 07:31N 28°54' W 013°24'816.3
2018-Feb-22 07:00N 28°51' W 013°15'  
2018-Feb-18 02:22N 28°40' W 016°02'617.4
2018-Feb-18 02:00N 28°38' W 015°55'817.1
2018-Feb-18 01:30N 28°37' W 015°46'611.6
2018-Feb-18 01:00N 28°35' W 015°40'713.3
2018-Feb-18 00:31N 28°29' W 015°35'917.2
2018-Feb-18 00:01N 28°22' W 015°30'917.0
2018-Feb-17 23:30N 28°15' W 015°25'714.0
2018-Feb-17 22:59N 28°07' W 015°24'2 3.8
2018-Feb-17 22:30N 28°08' W 015°25'0 0.1
2018-Feb-17 22:00N 28°08' W 015°25'0 0.0
2018-Feb-17 21:30N 28°08' W 015°25'0 0.0
2018-Feb-17 21:00N 28°08' W 015°25'0 0.0
2018-Feb-17 20:30N 28°08' W 015°25'0 0.0
2018-Feb-17 20:00N 28°08' W 015°25'0 0.0
2018-Feb-17 19:30N 28°08' W 015°25'0 0.0
2018-Feb-17 19:00N 28°08' W 015°25'0 0.0
2018-Feb-17 18:30N 28°08' W 015°25'0 0.0
2018-Feb-17 17:48N 28°08' W 015°25'0 0.0
2018-Feb-17 17:30N 28°08' W 015°25'0 0.0
2018-Feb-17 16:48N 28°08' W 015°25'0 0.0
2018-Feb-17 16:21N 28°08' W 015°25'0 0.0
2018-Feb-17 15:51N 28°08' W 015°25'0 0.0
2018-Feb-17 15:21N 28°08' W 015°25'0 0.0
2018-Feb-17 14:54N 28°08' W 015°25'0 0.0
2018-Feb-17 14:24N 28°08' W 015°25'0 0.0
2018-Feb-17 13:51N 28°08' W 015°25'0 0.0
2018-Feb-17 13:24N 28°08' W 015°25'0 0.0
2018-Feb-17 12:54N 28°08' W 015°25'0 0.0
2018-Feb-17 12:12N 28°08' W 015°25'0 0.0
2018-Feb-17 11:57N 28°08' W 015°25'0 0.0
2018-Feb-17 11:27N 28°08' W 015°25'0 0.0
2018-Feb-17 10:57N 28°08' W 015°25'0 0.0
2018-Feb-17 10:09N 28°08' W 015°25'0 0.0
2018-Feb-17 10:00N 28°08' W 015°25'0 0.0
2018-Feb-17 09:27N 28°08' W 015°25'0 0.0
2018-Feb-17 08:57N 28°08' W 015°25'0 0.0
2018-Feb-17 08:27N 28°08' W 015°25'0 0.0
2018-Feb-17 08:00N 28°08' W 015°25'0 0.0
2018-Feb-17 07:30N 28°08' W 015°25'1 1.2
2018-Feb-17 07:00N 28°08' W 015°25'3 5.5
2018-Feb-17 06:30N 28°07' W 015°22'510.2
2018-Feb-17 06:00N 28°09' W 015°17'5 9.9
2018-Feb-17 05:30N 28°13' W 015°13'510.8
2018-Feb-17 05:00N 28°18' W 015°14'510.2
2018-Feb-17 04:30N 28°22' W 015°18'610.3
2018-Feb-17 03:58N 28°25' W 015°23'510.5
2018-Feb-17 03:30N 28°28' W 015°28'510.6
2018-Feb-17 03:00N 28°31' W 015°32'611.9
2018-Feb-17 02:30N 28°35' W 015°38'4 8.8
2018-Feb-17 02:00N 28°33' W 015°43'5 9.7
2018-Feb-17 01:30N 28°30' W 015°46'611.2
2018-Feb-17 01:00N 28°25' W 015°51'4 8.9
2018-Feb-17 00:30N 28°24' W 015°55'510.0
2018-Feb-17 00:00N 28°24' W 016°01'5 9.7
2018-Feb-16 23:30N 28°26' W 016°06'5 9.0
2018-Feb-16 23:00N 28°27' W 016°11'3 6.8
2018-Feb-16 22:30N 28°29' W 016°14'0 0.8
2018-Feb-16 21:59N 28°28' W 016°15'0 0.0
2018-Feb-16 21:29N 28°28' W 016°15'0 0.0
2018-Feb-16 20:59N 28°28' W 016°15'0 0.0
2018-Feb-16 20:29N 28°28' W 016°15'0 0.0
2018-Feb-16 19:59N 28°28' W 016°15'0 0.0
2018-Feb-16 19:29N 28°28' W 016°15'0 0.0
2018-Feb-16 18:59N 28°28' W 016°15'0 0.0
2018-Feb-16 18:29N 28°28' W 016°15'0 0.0
2018-Feb-16 17:59N 28°28' W 016°15'0 0.0
2018-Feb-16 17:29N 28°28' W 016°15'0 0.0
2018-Feb-16 16:59N 28°28' W 016°15'0 0.0
2018-Feb-16 16:23N 28°28' W 016°15'0 0.0
2018-Feb-16 15:59N 28°28' W 016°15'0 0.0
2018-Feb-16 15:29N 28°28' W 016°15'0 0.0
2018-Feb-16 14:59N 28°28' W 016°15'0 0.0
2018-Feb-16 14:29N 28°28' W 016°15'0 0.0
2018-Feb-16 13:59N 28°28' W 016°15'0 0.0
2018-Feb-16 13:29N 28°28' W 016°15'0 0.0
2018-Feb-16 12:59N 28°28' W 016°15'0 0.0
2018-Feb-16 12:29N 28°28' W 016°15'0 0.0
2018-Feb-16 11:59N 28°28' W 016°15'0 0.0
2018-Feb-16 11:29N 28°28' W 016°15'0 0.0
2018-Feb-16 10:59N 28°28' W 016°15'0 0.0
2018-Feb-16 10:29N 28°28' W 016°15'0 0.0
2018-Feb-16 09:59N 28°28' W 016°15'0 0.0
2018-Feb-16 09:29N 28°28' W 016°15'0 0.0
2018-Feb-16 08:59N 28°28' W 016°15'0 0.0
2018-Feb-16 08:29N 28°28' W 016°15'0 0.0
2018-Feb-16 07:59N 28°28' W 016°15'0 0.0
2018-Feb-16 07:29N 28°28' W 016°15'0 0.0
2018-Feb-16 06:59N 28°28' W 016°15'0 0.1
2018-Feb-16 06:30N 28°28' W 016°15'2 4.1
2018-Feb-16 06:00N 28°29' W 016°12'612.2
2018-Feb-16 05:30N 28°27' W 016°06'612.0
2018-Feb-16 05:00N 28°28' W 015°59'612.0
2018-Feb-16 04:30N 28°30' W 015°52'612.2
2018-Feb-16 04:00N 28°34' W 015°47'611.7
2018-Feb-16 03:30N 28°37' W 015°42'612.2
2018-Feb-16 03:00N 28°39' W 015°35'612.4
2018-Feb-16 02:30N 28°40' W 015°28'612.1
2018-Feb-16 02:00N 28°42' W 015°21'611.3
2018-Feb-16 01:30N 28°43' W 015°15'713.1
2018-Feb-16 01:00N 28°43' W 015°07'612.6
2018-Feb-16 00:30N 28°43' W 015°00'611.9
2018-Feb-16 00:00N 28°43' W 014°54'612.1
2018-Feb-15 23:30N 28°43' W 014°47'612.1
2018-Feb-15 23:00N 28°44' W 014°40'612.1
2018-Feb-15 22:30N 28°45' W 014°33'612.2
2018-Feb-15 22:00N 28°46' W 014°26'612.5
2018-Feb-15 21:30N 28°46' W 014°19'612.5
2018-Feb-15 21:00N 28°47' W 014°12'612.4
2018-Feb-15 20:30N 28°48' W 014°05'611.7
2018-Feb-15 19:59N 28°48' W 013°58'511.4
2018-Feb-15 19:30N 28°49' W 013°52'5 9.7
2018-Feb-15 19:00N 28°47' W 013°47'510.8
2018-Feb-15 18:30N 28°41' W 013°47'510.7
2018-Feb-15 18:00N 28°36' W 013°47'510.2
2018-Feb-15 17:30N 28°31' W 013°48'3 6.7
2018-Feb-15 17:00N 28°29' W 013°51'0 0.1
2018-Feb-15 14:27N 28°30' W 013°51'0 0.0
2018-Feb-15 13:57N 28°30' W 013°51'0 0.0
2018-Feb-15 13:30N 28°30' W 013°51'0 0.0
2018-Feb-15 12:48N 28°30' W 013°51'0 0.0
2018-Feb-15 12:03N 28°30' W 013°51'0 0.0
2018-Feb-15 12:00N 28°30' W 013°51'0 0.0
2018-Feb-15 11:06N 28°30' W 013°51'0 0.0
2018-Feb-15 10:51N 28°30' W 013°51'0 0.0
2018-Feb-15 10:24N 28°30' W 013°51'0 0.0
2018-Feb-15 09:24N 28°30' W 013°51'0 0.0
2018-Feb-15 08:51N 28°30' W 013°51'0 0.0
2018-Feb-15 08:21N 28°30' W 013°51'0 0.0
2018-Feb-15 07:51N 28°30' W 013°51'0 0.0
2018-Feb-15 07:27N 28°30' W 013°51'0 0.9
2018-Feb-15 06:57N 28°29' W 013°51'7 7.0
2018-Feb-15 06:00N 28°30' W 013°44'3 5.1
2018-Feb-15 05:24N 28°30' W 013°40'0 1.2
2018-Feb-15 05:00N 28°30' W 013°40'1 1.2
2018-Feb-15 04:30N 28°30' W 013°39'1 1.2
2018-Feb-15 04:00N 28°29' W 013°38'1 1.4
2018-Feb-15 03:30N 28°29' W 013°39'4 7.6
2018-Feb-15 03:00N 28°28' W 013°43'0 0.4
2018-Feb-15 02:30N 28°28' W 013°43'1 1.4
2018-Feb-15 02:00N 28°28' W 013°42'1 1.5
2018-Feb-15 01:30N 28°28' W 013°41'1 1.5
2018-Feb-15 01:00N 28°27' W 013°40'1 1.6
2018-Feb-15 00:30N 28°27' W 013°39'1 1.7
2018-Feb-15 00:00N 28°27' W 013°38'1 1.8
2018-Feb-14 23:30N 28°27' W 013°37'1 2.2
2018-Feb-14 23:00N 28°27' W 013°36'510.0
2018-Feb-14 22:30N 28°24' W 013°31'510.1
2018-Feb-14 22:00N 28°23' W 013°26'610.5
2018-Feb-14 21:28N 28°28' W 013°25'510.8
2018-Feb-14 21:00N 28°34' W 013°24'1411.0
2018-Feb-14 19:45N 28°47' W 013°21'310.9
2018-Feb-14 19:29N 28°50' W 013°20'5 9.7
2018-Feb-14 19:00N 28°53' W 013°23'510.1
2018-Feb-14 18:30N 28°55' W 013°28'4 7.5
2018-Feb-14 18:00N 28°58' W 013°32'1 1.1
2018-Feb-14 17:28N 28°58' W 013°32'0 0.0
2018-Feb-14 16:58N 28°58' W 013°32'0 0.0
2018-Feb-14 16:22N 28°58' W 013°32'0 0.0
2018-Feb-14 15:58N 28°58' W 013°32'0 0.0
2018-Feb-14 15:22N 28°58' W 013°32'0 0.0
2018-Feb-14 14:58N 28°58' W 013°32'0 0.0
2018-Feb-14 14:28N 28°58' W 013°32'0 0.0
2018-Feb-14 13:58N 28°58' W 013°32'0 0.0
2018-Feb-14 13:28N 28°58' W 013°32'0 0.0
2018-Feb-14 12:58N 28°58' W 013°32'0 0.0
2018-Feb-14 12:28N 28°58' W 013°32'0 0.0
2018-Feb-14 11:58N 28°58' W 013°32'0 0.0
2018-Feb-14 11:25N 28°58' W 013°32'0 0.0
2018-Feb-14 10:55N 28°58' W 013°32'0 0.0
2018-Feb-14 10:28N 28°58' W 013°32'0 0.0
2018-Feb-14 09:58N 28°58' W 013°32'0 0.0
2018-Feb-14 09:19N 28°58' W 013°32'0 0.0
2018-Feb-14 08:31N 28°58' W 013°32'0 0.0
2018-Feb-14 08:22N 28°58' W 013°32'0 0.0
2018-Feb-14 07:37N 28°58' W 013°32'0 0.0
2018-Feb-14 07:29N 28°58' W 013°32'1 2.0
2018-Feb-14 07:00N 28°57' W 013°32'4 7.8
2018-Feb-14 06:30N 28°54' W 013°35'4 8.5
2018-Feb-14 06:00N 28°51' W 013°39'3 6.6
2018-Feb-14 05:30N 28°49' W 013°41'0 0.9
2018-Feb-14 05:00N 28°49' W 013°41'1 1.0
2018-Feb-14 04:26N 28°49' W 013°40'0 1.1
2018-Feb-14 03:59N 28°49' W 013°40'1 1.2
2018-Feb-14 03:30N 28°49' W 013°39'1 1.1
2018-Feb-14 03:00N 28°49' W 013°38'1 1.1
2018-Feb-14 02:30N 28°50' W 013°38'0 0.6
2018-Feb-14 02:00N 28°49' W 013°38'2 1.6
2018-Feb-14 00:36N 28°49' W 013°40'0 1.0
2018-Feb-14 00:30N 28°49' W 013°40'0 0.9
2018-Feb-14 00:01N 28°49' W 013°40'3 6.8
2018-Feb-13 23:30N 28°49' W 013°44'711.4
2018-Feb-13 22:56N 28°49' W 013°51'511.2
2018-Feb-13 22:30N 28°50' W 013°57'710.3
2018-Feb-13 21:49N 28°55' W 014°02'310.6
2018-Feb-13 21:30N 28°58' W 014°04'  
Track history (hours):
 
Tides and Currents Weather Stations Pressure Air Temp Water Temp Dewpoint Dewpoint Depression Visibility Wind Speed Wind Dir Waves Ship Positions

Thomson Dream

Last reported at 2018-Feb-22 08:29 UTC. Time now 2018-Feb-22 08:54 UTC.
Position N 28°58' W 013°32'.

Length 243 m; draft 7.6 m.

Type: Ship. MMSI: 248480975.

Date/timePositionNaut miles runAvg speedWind from/ knotsBaromVisibWave heightAir tempDewpointWater temp
2018-Feb-22 08:29N 28°58' W 013°32'1 2.4
2018-Feb-22 08:00N 28°57' W 013°31'714.4
2018-Feb-22 07:31N 28°54' W 013°24'816.3
2018-Feb-22 07:00N 28°51' W 013°15'  
2018-Feb-18 02:22N 28°40' W 016°02'617.4
2018-Feb-18 02:00N 28°38' W 015°55'817.1
2018-Feb-18 01:30N 28°37' W 015°46'611.6
2018-Feb-18 01:00N 28°35' W 015°40'713.3
2018-Feb-18 00:31N 28°29' W 015°35'917.2
2018-Feb-18 00:01N 28°22' W 015°30'917.0
2018-Feb-17 23:30N 28°15' W 015°25'714.0
2018-Feb-17 22:59N 28°07' W 015°24'2 3.8
2018-Feb-17 22:30N 28°08' W 015°25'0 0.1
2018-Feb-17 22:00N 28°08' W 015°25'0 0.0
2018-Feb-17 21:30N 28°08' W 015°25'0 0.0
2018-Feb-17 21:00N 28°08' W 015°25'0 0.0
2018-Feb-17 20:30N 28°08' W 015°25'0 0.0
2018-Feb-17 20:00N 28°08' W 015°25'0 0.0
2018-Feb-17 19:30N 28°08' W 015°25'0 0.0
2018-Feb-17 19:00N 28°08' W 015°25'0 0.0
2018-Feb-17 18:30N 28°08' W 015°25'0 0.0
2018-Feb-17 17:48N 28°08' W 015°25'0 0.0
2018-Feb-17 17:30N 28°08' W 015°25'0 0.0
2018-Feb-17 16:48N 28°08' W 015°25'0 0.0
2018-Feb-17 16:21N 28°08' W 015°25'0 0.0
2018-Feb-17 15:51N 28°08' W 015°25'0 0.0
2018-Feb-17 15:21N 28°08' W 015°25'0 0.0
2018-Feb-17 14:54N 28°08' W 015°25'0 0.0
2018-Feb-17 14:24N 28°08' W 015°25'0 0.0
2018-Feb-17 13:51N 28°08' W 015°25'0 0.0
2018-Feb-17 13:24N 28°08' W 015°25'0 0.0
2018-Feb-17 12:54N 28°08' W 015°25'0 0.0
2018-Feb-17 12:12N 28°08' W 015°25'0 0.0
2018-Feb-17 11:57N 28°08' W 015°25'0 0.0
2018-Feb-17 11:27N 28°08' W 015°25'0 0.0
2018-Feb-17 10:57N 28°08' W 015°25'0 0.0
2018-Feb-17 10:09N 28°08' W 015°25'0 0.0
2018-Feb-17 10:00N 28°08' W 015°25'0 0.0
2018-Feb-17 09:27N 28°08' W 015°25'0 0.0
2018-Feb-17 08:57N 28°08' W 015°25'0 0.0
2018-Feb-17 08:27N 28°08' W 015°25'0 0.0
2018-Feb-17 08:00N 28°08' W 015°25'0 0.0
2018-Feb-17 07:30N 28°08' W 015°25'1 1.2
2018-Feb-17 07:00N 28°08' W 015°25'3 5.5
2018-Feb-17 06:30N 28°07' W 015°22'510.2
2018-Feb-17 06:00N 28°09' W 015°17'5 9.9
2018-Feb-17 05:30N 28°13' W 015°13'510.8
2018-Feb-17 05:00N 28°18' W 015°14'510.2
2018-Feb-17 04:30N 28°22' W 015°18'610.3
2018-Feb-17 03:58N 28°25' W 015°23'510.5
2018-Feb-17 03:30N 28°28' W 015°28'510.6
2018-Feb-17 03:00N 28°31' W 015°32'611.9
2018-Feb-17 02:30N 28°35' W 015°38'4 8.8
2018-Feb-17 02:00N 28°33' W 015°43'5 9.7
2018-Feb-17 01:30N 28°30' W 015°46'611.2
2018-Feb-17 01:00N 28°25' W 015°51'4 8.9
2018-Feb-17 00:30N 28°24' W 015°55'510.0
2018-Feb-17 00:00N 28°24' W 016°01'5 9.7
2018-Feb-16 23:30N 28°26' W 016°06'5 9.0
2018-Feb-16 23:00N 28°27' W 016°11'3 6.8
2018-Feb-16 22:30N 28°29' W 016°14'0 0.8
2018-Feb-16 21:59N 28°28' W 016°15'0 0.0
2018-Feb-16 21:29N 28°28' W 016°15'0 0.0
2018-Feb-16 20:59N 28°28' W 016°15'0 0.0
2018-Feb-16 20:29N 28°28' W 016°15'0 0.0
2018-Feb-16 19:59N 28°28' W 016°15'0 0.0
2018-Feb-16 19:29N 28°28' W 016°15'0 0.0
2018-Feb-16 18:59N 28°28' W 016°15'0 0.0
2018-Feb-16 18:29N 28°28' W 016°15'0 0.0
2018-Feb-16 17:59N 28°28' W 016°15'0 0.0
2018-Feb-16 17:29N 28°28' W 016°15'0 0.0
2018-Feb-16 16:59N 28°28' W 016°15'0 0.0
2018-Feb-16 16:23N 28°28' W 016°15'0 0.0
2018-Feb-16 15:59N 28°28' W 016°15'0 0.0
2018-Feb-16 15:29N 28°28' W 016°15'0 0.0
2018-Feb-16 14:59N 28°28' W 016°15'0 0.0
2018-Feb-16 14:29N 28°28' W 016°15'0 0.0
2018-Feb-16 13:59N 28°28' W 016°15'0 0.0
2018-Feb-16 13:29N 28°28' W 016°15'0 0.0
2018-Feb-16 12:59N 28°28' W 016°15'0 0.0
2018-Feb-16 12:29N 28°28' W 016°15'0 0.0
2018-Feb-16 11:59N 28°28' W 016°15'0 0.0
2018-Feb-16 11:29N 28°28' W 016°15'0 0.0
2018-Feb-16 10:59N 28°28' W 016°15'0 0.0
2018-Feb-16 10:29N 28°28' W 016°15'0 0.0
2018-Feb-16 09:59N 28°28' W 016°15'0 0.0
2018-Feb-16 09:29N 28°28' W 016°15'0 0.0
2018-Feb-16 08:59N 28°28' W 016°15'0 0.0
2018-Feb-16 08:29N 28°28' W 016°15'0 0.0
2018-Feb-16 07:59N 28°28' W 016°15'0 0.0
2018-Feb-16 07:29N 28°28' W 016°15'0 0.0
2018-Feb-16 06:59N 28°28' W 016°15'0 0.1
2018-Feb-16 06:30N 28°28' W 016°15'2 4.1
2018-Feb-16 06:00N 28°29' W 016°12'612.2
2018-Feb-16 05:30N 28°27' W 016°06'612.0
2018-Feb-16 05:00N 28°28' W 015°59'612.0
2018-Feb-16 04:30N 28°30' W 015°52'612.2
2018-Feb-16 04:00N 28°34' W 015°47'611.7
2018-Feb-16 03:30N 28°37' W 015°42'612.2
2018-Feb-16 03:00N 28°39' W 015°35'612.4
2018-Feb-16 02:30N 28°40' W 015°28'612.1
2018-Feb-16 02:00N 28°42' W 015°21'611.3
2018-Feb-16 01:30N 28°43' W 015°15'713.1
2018-Feb-16 01:00N 28°43' W 015°07'612.6
2018-Feb-16 00:30N 28°43' W 015°00'611.9
2018-Feb-16 00:00N 28°43' W 014°54'612.1
2018-Feb-15 23:30N 28°43' W 014°47'612.1
2018-Feb-15 23:00N 28°44' W 014°40'612.1
2018-Feb-15 22:30N 28°45' W 014°33'612.2
2018-Feb-15 22:00N 28°46' W 014°26'612.5
2018-Feb-15 21:30N 28°46' W 014°19'612.5
2018-Feb-15 21:00N 28°47' W 014°12'612.4
2018-Feb-15 20:30N 28°48' W 014°05'611.7
2018-Feb-15 19:59N 28°48' W 013°58'511.4
2018-Feb-15 19:30N 28°49' W 013°52'5 9.7
2018-Feb-15 19:00N 28°47' W 013°47'510.8
2018-Feb-15 18:30N 28°41' W 013°47'510.7
2018-Feb-15 18:00N 28°36' W 013°47'510.2
2018-Feb-15 17:30N 28°31' W 013°48'3 6.7
2018-Feb-15 17:00N 28°29' W 013°51'0 0.1
2018-Feb-15 14:27N 28°30' W 013°51'0 0.0
2018-Feb-15 13:57N 28°30' W 013°51'0 0.0
2018-Feb-15 13:30N 28°30' W 013°51'0 0.0
2018-Feb-15 12:48N 28°30' W 013°51'0 0.0
2018-Feb-15 12:03N 28°30' W 013°51'0 0.0
2018-Feb-15 12:00N 28°30' W 013°51'0 0.0
2018-Feb-15 11:06N 28°30' W 013°51'0 0.0
2018-Feb-15 10:51N 28°30' W 013°51'0 0.0
2018-Feb-15 10:24N 28°30' W 013°51'0 0.0
2018-Feb-15 09:24N 28°30' W 013°51'0 0.0
2018-Feb-15 08:51N 28°30' W 013°51'0 0.0
2018-Feb-15 08:21N 28°30' W 013°51'0 0.0
2018-Feb-15 07:51N 28°30' W 013°51'0 0.0
2018-Feb-15 07:27N 28°30' W 013°51'0 0.9
2018-Feb-15 06:57N 28°29' W 013°51'7 7.0
2018-Feb-15 06:00N 28°30' W 013°44'3 5.1
2018-Feb-15 05:24N 28°30' W 013°40'0 1.2
2018-Feb-15 05:00N 28°30' W 013°40'1 1.2
2018-Feb-15 04:30N 28°30' W 013°39'1 1.2
2018-Feb-15 04:00N 28°29' W 013°38'1 1.4
2018-Feb-15 03:30N 28°29' W 013°39'4 7.6
2018-Feb-15 03:00N 28°28' W 013°43'0 0.4
2018-Feb-15 02:30N 28°28' W 013°43'1 1.4
2018-Feb-15 02:00N 28°28' W 013°42'1 1.5
2018-Feb-15 01:30N 28°28' W 013°41'1 1.5
2018-Feb-15 01:00N 28°27' W 013°40'1 1.6
2018-Feb-15 00:30N 28°27' W 013°39'1 1.7
2018-Feb-15 00:00N 28°27' W 013°38'1 1.8
2018-Feb-14 23:30N 28°27' W 013°37'1 2.2
2018-Feb-14 23:00N 28°27' W 013°36'510.0
2018-Feb-14 22:30N 28°24' W 013°31'510.1
2018-Feb-14 22:00N 28°23' W 013°26'610.5
2018-Feb-14 21:28N 28°28' W 013°25'510.8
2018-Feb-14 21:00N 28°34' W 013°24'1411.0
2018-Feb-14 19:45N 28°47' W 013°21'310.9
2018-Feb-14 19:29N 28°50' W 013°20'5 9.7
2018-Feb-14 19:00N 28°53' W 013°23'510.1
2018-Feb-14 18:30N 28°55' W 013°28'4 7.5
2018-Feb-14 18:00N 28°58' W 013°32'1 1.1
2018-Feb-14 17:28N 28°58' W 013°32'0 0.0
2018-Feb-14 16:58N 28°58' W 013°32'0 0.0
2018-Feb-14 16:22N 28°58' W 013°32'0 0.0
2018-Feb-14 15:58N 28°58' W 013°32'0 0.0
2018-Feb-14 15:22N 28°58' W 013°32'0 0.0
2018-Feb-14 14:58N 28°58' W 013°32'0 0.0
2018-Feb-14 14:28N 28°58' W 013°32'0 0.0
2018-Feb-14 13:58N 28°58' W 013°32'0 0.0
2018-Feb-14 13:28N 28°58' W 013°32'0 0.0
2018-Feb-14 12:58N 28°58' W 013°32'0 0.0
2018-Feb-14 12:28N 28°58' W 013°32'0 0.0
2018-Feb-14 11:58N 28°58' W 013°32'0 0.0
2018-Feb-14 11:25N 28°58' W 013°32'0 0.0
2018-Feb-14 10:55N 28°58' W 013°32'0 0.0
2018-Feb-14 10:28N 28°58' W 013°32'0 0.0
2018-Feb-14 09:58N 28°58' W 013°32'0 0.0
2018-Feb-14 09:19N 28°58' W 013°32'0 0.0
2018-Feb-14 08:31N 28°58' W 013°32'0 0.0
2018-Feb-14 08:22N 28°58' W 013°32'0 0.0
2018-Feb-14 07:37N 28°58' W 013°32'0 0.0
2018-Feb-14 07:29N 28°58' W 013°32'1 2.0
2018-Feb-14 07:00N 28°57' W 013°32'4 7.8
2018-Feb-14 06:30N 28°54' W 013°35'4 8.5
2018-Feb-14 06:00N 28°51' W 013°39'3 6.6
2018-Feb-14 05:30N 28°49' W 013°41'0 0.9
2018-Feb-14 05:00N 28°49' W 013°41'1 1.0
2018-Feb-14 04:26N 28°49' W 013°40'0 1.1
2018-Feb-14 03:59N 28°49' W 013°40'1 1.2
2018-Feb-14 03:30N 28°49' W 013°39'1 1.1
2018-Feb-14 03:00N 28°49' W 013°38'1 1.1
2018-Feb-14 02:30N 28°50' W 013°38'0 0.6
2018-Feb-14 02:00N 28°49' W 013°38'2 1.6
2018-Feb-14 00:36N 28°49' W 013°40'0 1.0
2018-Feb-14 00:30N 28°49' W 013°40'0 0.9
2018-Feb-14 00:01N 28°49' W 013°40'3 6.8
2018-Feb-13 23:30N 28°49' W 013°44'711.4
2018-Feb-13 22:56N 28°49' W 013°51'511.2
2018-Feb-13 22:30N 28°50' W 013°57'710.3
2018-Feb-13 21:49N 28°55' W 014°02'310.6
2018-Feb-13 21:30N 28°58' W 014°04'  

Dump ship's entire track history